Time;durP1;ratioP1;P1;durP2;ratioP2;P2;SDS_P1;SDS_P2;PMS_P1;PMS_P2;Temp;Humidity;BMP_temperature;BMP_pressure;BME280_temperature;BME280_humidity;BME280_pressure;Samples;Min_cycle;Max_cycle;Signal;HPM_P1;HPM_P2
2022/11/14 00:00:28;;;;;;;45.55;30.35;;;;;;;;;;5002662;28;20100;-86
2022/11/14 00:02:54;;;;;;;47.42;30.67;;;;;;;;;;5035627;28;20040;-85
2022/11/14 00:05:20;;;;;;;45.75;30.23;;;;;;;;;;5028971;28;20496;-85
2022/11/14 00:07:47;;;;;;;47.70;31.52;;;;;;;;;;4995902;28;20507;-85
2022/11/14 00:10:13;;;;;;;46.03;31.85;;;;;;;;;;5031522;28;20799;-85
2022/11/14 00:12:39;;;;;;;47.65;32.40;;;;;;;;;;5032432;28;20459;-85
2022/11/14 00:15:06;;;;;;;50.15;31.38;;;;;;;;;;5027647;28;20509;-85
2022/11/14 00:17:32;;;;;;;48.42;33.17;;;;;;;;;;5013456;28;20583;-85
2022/11/14 00:19:58;;;;;;;51.90;33.38;;;;;;;;;;5032190;28;20092;-85
2022/11/14 00:22:24;;;;;;;50.13;31.45;;;;;;;;;;5034563;28;20076;-85
2022/11/14 00:24:50;;;;;;;52.92;35.80;;;;;;;;;;5030588;28;20426;-86
2022/11/14 00:27:16;;;;;;;51.10;34.00;;;;;;;;;;5007020;28;20132;-85
2022/11/14 00:29:41;;;;;;;56.70;37.40;;;;;;;;;;5027894;28;20068;-86
2022/11/14 00:32:07;;;;;;;54.20;36.50;;;;;;;;;;5030778;28;20477;-85
2022/11/14 00:34:34;;;;;;;54.80;37.60;;;;;;;;;;5013622;28;20049;-85
2022/11/14 00:37:00;;;;;;;54.92;36.38;;;;;;;;;;5037697;28;20045;-85
2022/11/14 00:39:26;;;;;;;61.08;39.10;;;;;;;;;;5038305;28;20125;-86
2022/11/14 00:41:52;;;;;;;58.08;38.08;;;;;;;;;;5018029;28;20046;-85
2022/11/14 00:44:18;;;;;;;59.25;38.00;;;;;;;;;;5029216;28;20045;-86
2022/11/14 00:46:44;;;;;;;62.70;38.70;;;;;;;;;;5029553;28;20488;-85
2022/11/14 00:49:10;;;;;;;61.83;39.67;;;;;;;;;;5030642;28;20049;-86
2022/11/14 00:51:36;;;;;;;63.88;41.92;;;;;;;;;;5005928;28;20045;-85
2022/11/14 00:54:02;;;;;;;60.97;41.15;;;;;;;;;;5012409;28;20470;-85
2022/11/14 00:56:28;;;;;;;62.75;41.40;;;;;;;;;;5030415;28;20061;-85
2022/11/14 00:58:54;;;;;;;63.55;41.13;;;;;;;;;;5028760;28;20041;-85
2022/11/14 01:01:20;;;;;;;68.85;41.72;;;;;;;;;;5034884;28;20052;-86
2022/11/14 01:03:50;;;;;;;66.45;42.20;;;;;;;;;;5018398;28;20049;-85
2022/11/14 01:06:16;;;;;;;63.28;42.13;;;;;;;;;;5040277;28;20025;-85
2022/11/14 01:08:42;;;;;;;66.70;41.55;;;;;;;;;;5056550;28;20028;-86
2022/11/14 01:11:10;;;;;;;64.57;42.63;;;;;;;;;;5048900;28;20480;-85
2022/11/14 01:13:36;;;;;;;65.28;42.92;;;;;;;;;;5027780;28;20045;-86
2022/11/14 01:16:02;;;;;;;71.97;43.90;;;;;;;;;;5027449;28;20404;-85
2022/11/14 01:18:28;;;;;;;68.35;43.65;;;;;;;;;;5025116;28;20054;-85
2022/11/14 01:20:54;;;;;;;71.97;45.85;;;;;;;;;;5015266;28;20056;-85
2022/11/14 01:23:20;;;;;;;67.43;43.95;;;;;;;;;;5011823;28;20060;-85
2022/11/14 01:25:46;;;;;;;70.35;44.80;;;;;;;;;;5027234;28;20045;-85
2022/11/14 01:28:14;;;;;;;69.82;46.20;;;;;;;;;;5010210;28;20065;-85
2022/11/14 01:30:40;;;;;;;71.35;46.00;;;;;;;;;;5009477;28;20053;-85
2022/11/14 01:33:07;;;;;;;74.05;45.88;;;;;;;;;;5011114;28;20140;-85
2022/11/14 01:35:33;;;;;;;78.05;46.15;;;;;;;;;;5028977;28;20113;-85
2022/11/14 01:38:00;;;;;;;72.40;45.00;;;;;;;;;;5031726;28;20041;-85
2022/11/14 01:40:26;;;;;;;74.40;45.78;;;;;;;;;;5031024;28;20481;-85
2022/11/14 01:43:10;;;;;;;71.72;44.95;;;;;;;;;;5028141;28;20038;-85
2022/11/14 01:45:53;;;;;;;73.65;45.72;;;;;;;;;;5009460;28;20136;-85
2022/11/14 01:48:22;;;;;;;72.45;45.03;;;;;;;;;;5027844;28;20050;-86
2022/11/14 01:50:52;;;;;;;75.20;44.35;;;;;;;;;;5025480;28;20041;-85
2022/11/14 01:53:18;;;;;;;73.75;45.80;;;;;;;;;;5028181;28;20037;-85
2022/11/14 01:55:44;;;;;;;72.57;44.53;;;;;;;;;;4992840;28;20052;-84
2022/11/14 01:58:11;;;;;;;76.47;46.05;;;;;;;;;;5024341;28;20072;-85
2022/11/14 02:00:37;;;;;;;72.78;45.17;;;;;;;;;;5028028;28;20111;-85
2022/11/14 02:03:03;;;;;;;79.93;45.40;;;;;;;;;;5010544;28;20111;-85
2022/11/14 02:05:30;;;;;;;77.43;45.95;;;;;;;;;;5032006;28;20115;-85
2022/11/14 02:07:56;;;;;;;77.38;44.67;;;;;;;;;;5029916;28;20083;-85
2022/11/14 02:10:22;;;;;;;80.30;46.05;;;;;;;;;;5031256;28;20169;-85
2022/11/14 02:12:50;;;;;;;78.22;47.35;;;;;;;;;;5026281;28;21830;-85
2022/11/14 02:15:16;;;;;;;80.78;45.35;;;;;;;;;;5011603;28;20077;-85
2022/11/14 02:17:43;;;;;;;76.38;45.90;;;;;;;;;;5001083;28;20104;-86
2022/11/14 02:20:09;;;;;;;78.88;46.83;;;;;;;;;;5027729;28;20057;-85
2022/11/14 02:22:35;;;;;;;75.50;45.50;;;;;;;;;;5016403;28;20076;-85
2022/11/14 02:25:01;;;;;;;80.32;47.40;;;;;;;;;;5028750;28;20052;-85
2022/11/14 02:27:28;;;;;;;74.80;44.85;;;;;;;;;;5027544;28;20141;-85
2022/11/14 02:29:54;;;;;;;79.65;44.00;;;;;;;;;;5027419;28;20037;-85
2022/11/14 02:32:21;;;;;;;82.45;45.83;;;;;;;;;;5010735;28;20049;-85
2022/11/14 02:34:49;;;;;;;79.65;46.47;;;;;;;;;;5000109;28;20081;-85
2022/11/14 02:37:15;;;;;;;81.10;47.05;;;;;;;;;;5026786;28;20441;-86
2022/11/14 02:39:41;;;;;;;75.60;45.22;;;;;;;;;;5029793;28;20040;-85
2022/11/14 02:42:07;;;;;;;76.50;45.70;;;;;;;;;;5009492;28;20048;-85
2022/11/14 02:44:33;;;;;;;78.85;46.60;;;;;;;;;;5026771;28;20092;-85
2022/11/14 02:46:59;;;;;;;73.90;43.72;;;;;;;;;;5027185;28;20045;-86
2022/11/14 02:49:25;;;;;;;78.35;45.80;;;;;;;;;;5026115;28;20412;-86
2022/11/14 02:51:51;;;;;;;74.75;45.25;;;;;;;;;;5026839;28;20096;-85
2022/11/14 02:54:17;;;;;;;74.35;45.38;;;;;;;;;;5027452;28;20455;-85
2022/11/14 02:56:43;;;;;;;76.53;46.28;;;;;;;;;;5028525;28;20041;-85
2022/11/14 02:59:09;;;;;;;72.97;44.58;;;;;;;;;;5026745;28;20413;-86
2022/11/14 03:01:35;;;;;;;73.60;44.95;;;;;;;;;;5004702;28;20169;-85
2022/11/14 03:04:01;;;;;;;75.53;44.40;;;;;;;;;;5011966;28;20041;-85
2022/11/14 03:06:27;;;;;;;67.10;43.17;;;;;;;;;;5027289;28;20046;-85
2022/11/14 03:08:53;;;;;;;69.90;45.58;;;;;;;;;;5029663;28;20045;-85
2022/11/14 03:11:19;;;;;;;66.82;43.75;;;;;;;;;;5029035;28;20049;-85
2022/11/14 03:13:45;;;;;;;67.32;43.45;;;;;;;;;;5027118;28;20038;-85
2022/11/14 03:16:13;;;;;;;73.45;44.25;;;;;;;;;;5031911;28;20409;-86
2022/11/14 03:18:39;;;;;;;66.82;44.25;;;;;;;;;;5031826;28;20053;-85
2022/11/14 03:21:09;;;;;;;67.90;43.15;;;;;;;;;;5015516;28;20058;-86
2022/11/14 03:23:36;;;;;;;70.18;44.17;;;;;;;;;;5029608;28;20134;-86
2022/11/14 03:26:02;;;;;;;67.50;43.33;;;;;;;;;;5016945;28;20513;-85
2022/11/14 03:28:28;;;;;;;68.63;43.90;;;;;;;;;;5034056;28;20047;-86
2022/11/14 03:30:54;;;;;;;68.18;43.90;;;;;;;;;;5053686;28;20061;-86
2022/11/14 03:33:20;;;;;;;70.80;44.67;;;;;;;;;;5055343;28;20029;-85
2022/11/14 03:35:49;;;;;;;68.30;44.72;;;;;;;;;;5038706;28;20132;-85
2022/11/14 03:38:15;;;;;;;70.25;43.10;;;;;;;;;;5014711;28;20050;-86
2022/11/14 03:40:41;;;;;;;62.58;42.20;;;;;;;;;;5018316;28;20048;-86
2022/11/14 03:43:07;;;;;;;68.55;43.58;;;;;;;;;;5035389;28;20041;-84
2022/11/14 03:45:33;;;;;;;69.20;44.70;;;;;;;;;;5017987;28;20046;-84
2022/11/14 03:47:59;;;;;;;71.78;43.83;;;;;;;;;;5032681;28;20042;-85
2022/11/14 03:50:25;;;;;;;70.00;44.55;;;;;;;;;;5019194;28;20493;-85
2022/11/14 03:52:51;;;;;;;70.93;44.15;;;;;;;;;;5028654;28;20104;-85
2022/11/14 03:55:17;;;;;;;63.65;43.13;;;;;;;;;;5030327;28;20045;-85
2022/11/14 03:57:43;;;;;;;73.68;45.08;;;;;;;;;;5034804;28;20040;-85
2022/11/14 04:00:09;;;;;;;63.40;42.55;;;;;;;;;;5036619;28;20045;-86
2022/11/14 04:02:35;;;;;;;65.75;45.33;;;;;;;;;;5032797;28;20045;-84
2022/11/14 04:05:01;;;;;;;69.65;44.83;;;;;;;;;;5035301;28;20037;-86
2022/11/14 04:07:27;;;;;;;68.72;44.47;;;;;;;;;;5015245;28;20096;-85
2022/11/14 04:09:53;;;;;;;66.18;43.17;;;;;;;;;;5027815;28;20108;-85
2022/11/14 04:12:19;;;;;;;69.90;44.10;;;;;;;;;;5017124;28;20050;-85
2022/11/14 04:14:45;;;;;;;65.60;44.78;;;;;;;;;;5019311;28;20395;-85
2022/11/14 04:17:11;;;;;;;66.38;44.70;;;;;;;;;;5033524;28;20058;-85
2022/11/14 04:19:37;;;;;;;70.47;46.47;;;;;;;;;;5036873;28;20124;-85
2022/11/14 04:22:03;;;;;;;68.47;44.85;;;;;;;;;;5013826;28;20404;-85
2022/11/14 04:24:29;;;;;;;63.92;43.38;;;;;;;;;;5019725;28;20447;-86
2022/11/14 04:26:55;;;;;;;67.97;44.38;;;;;;;;;;5016766;28;20065;-85
2022/11/14 04:29:21;;;;;;;66.88;44.47;;;;;;;;;;5039750;28;20056;-85
2022/11/14 04:31:47;;;;;;;65.68;44.60;;;;;;;;;;5037899;28;20661;-85
2022/11/14 04:34:13;;;;;;;66.75;44.20;;;;;;;;;;5034694;28;20106;-85
2022/11/14 04:36:39;;;;;;;69.65;45.05;;;;;;;;;;5041035;28;20390;-85
2022/11/14 04:39:05;;;;;;;67.32;44.28;;;;;;;;;;5040924;28;20052;-85
2022/11/14 04:41:31;;;;;;;65.30;43.83;;;;;;;;;;5013314;28;20200;-85
2022/11/14 04:43:57;;;;;;;69.90;45.55;;;;;;;;;;5021292;28;20053;-85
2022/11/14 04:46:23;;;;;;;67.47;43.45;;;;;;;;;;5042285;28;20445;-85
2022/11/14 04:48:49;;;;;;;69.10;45.22;;;;;;;;;;5041446;28;20033;-85
2022/11/14 04:51:15;;;;;;;67.63;45.25;;;;;;;;;;5044443;28;20566;-85
2022/11/14 04:53:41;;;;;;;68.50;44.20;;;;;;;;;;5040644;28;20386;-85
2022/11/14 04:56:07;;;;;;;65.88;42.53;;;;;;;;;;5037681;28;20052;-85
2022/11/14 04:58:33;;;;;;;65.53;42.78;;;;;;;;;;5023512;28;20065;-85
2022/11/14 05:00:59;;;;;;;67.85;44.85;;;;;;;;;;5044129;28;20478;-85
2022/11/14 05:03:25;;;;;;;71.05;43.45;;;;;;;;;;5040794;28;20068;-85
2022/11/14 05:05:51;;;;;;;70.28;43.42;;;;;;;;;;5040562;28;20049;-85
2022/11/14 05:08:17;;;;;;;69.72;43.88;;;;;;;;;;5021310;28;20046;-85
2022/11/14 05:10:44;;;;;;;71.95;45.75;;;;;;;;;;5044330;28;20451;-85
2022/11/14 05:13:10;;;;;;;70.18;44.65;;;;;;;;;;5039698;28;20098;-85
2022/11/14 05:15:36;;;;;;;74.45;46.08;;;;;;;;;;5043410;28;20045;-86
2022/11/14 05:18:02;;;;;;;78.40;44.80;;;;;;;;;;5041824;28;20608;-85
2022/11/14 05:20:28;;;;;;;68.75;45.28;;;;;;;;;;5025837;28;20091;-85
2022/11/14 05:22:55;;;;;;;75.25;45.33;;;;;;;;;;5005883;28;20099;-85
2022/11/14 05:25:21;;;;;;;73.18;45.17;;;;;;;;;;5023035;28;20063;-85
2022/11/14 05:27:47;;;;;;;72.13;45.03;;;;;;;;;;5024375;28;20101;-85
2022/11/14 05:30:13;;;;;;;73.60;43.83;;;;;;;;;;5042611;28;20041;-85
2022/11/14 05:32:39;;;;;;;68.80;43.20;;;;;;;;;;5021864;28;20041;-85
2022/11/14 05:35:06;;;;;;;67.70;41.38;;;;;;;;;;5020964;28;20504;-86
2022/11/14 05:37:33;;;;;;;72.28;44.42;;;;;;;;;;5021424;28;20057;-85
2022/11/14 05:39:59;;;;;;;69.10;42.22;;;;;;;;;;5039172;28;20105;-86
2022/11/14 05:42:26;;;;;;;73.53;43.70;;;;;;;;;;5037266;28;20524;-86
2022/11/14 05:44:52;;;;;;;68.18;40.92;;;;;;;;;;5039286;28;20037;-85
2022/11/14 05:47:19;;;;;;;74.65;43.72;;;;;;;;;;5040811;28;20038;-85
2022/11/14 05:49:45;;;;;;;71.80;42.55;;;;;;;;;;5021990;28;20045;-85
2022/11/14 05:52:11;;;;;;;74.43;43.42;;;;;;;;;;5045073;28;20048;-85
2022/11/14 05:54:37;;;;;;;73.18;42.97;;;;;;;;;;5041036;28;20052;-85
2022/11/14 05:57:04;;;;;;;75.38;44.10;;;;;;;;;;5055061;28;20487;-85
2022/11/14 05:59:30;;;;;;;68.93;41.92;;;;;;;;;;5026281;28;20049;-85
2022/11/14 06:01:56;;;;;;;70.80;42.67;;;;;;;;;;5039934;28;20041;-85
2022/11/14 06:04:22;;;;;;;78.63;44.70;;;;;;;;;;5022848;28;20049;-85
2022/11/14 06:06:48;;;;;;;79.47;43.78;;;;;;;;;;5024296;28;20104;-85
2022/11/14 06:09:14;;;;;;;77.55;43.97;;;;;;;;;;5022605;28;20080;-85
2022/11/14 06:11:40;;;;;;;78.75;44.00;;;;;;;;;;5024715;28;20041;-85
2022/11/14 06:14:06;;;;;;;75.05;42.55;;;;;;;;;;5042735;28;20103;-85
2022/11/14 06:16:32;;;;;;;74.28;44.25;;;;;;;;;;5038203;28;20076;-85
2022/11/14 06:18:58;;;;;;;77.82;44.92;;;;;;;;;;5041439;28;20056;-85
2022/11/14 06:21:25;;;;;;;72.93;43.40;;;;;;;;;;5021173;28;20049;-85
2022/11/14 06:23:51;;;;;;;72.35;43.30;;;;;;;;;;5038918;28;20504;-85
2022/11/14 06:26:22;;;;;;;73.07;43.13;;;;;;;;;;5019714;28;20049;-85
2022/11/14 06:28:49;;;;;;;74.90;43.93;;;;;;;;;;5019388;28;20045;-85
2022/11/14 06:31:15;;;;;;;73.70;42.67;;;;;;;;;;5036242;28;20084;-85
2022/11/14 06:33:41;;;;;;;72.05;40.88;;;;;;;;;;5039767;28;20045;-85
2022/11/14 06:36:08;;;;;;;75.38;44.35;;;;;;;;;;5036545;28;20043;-83
2022/11/14 06:38:35;;;;;;;75.90;43.53;;;;;;;;;;5034004;28;20045;-84
2022/11/14 06:41:02;;;;;;;79.00;45.45;;;;;;;;;;5034531;28;20111;-84
2022/11/14 06:43:28;;;;;;;75.05;44.05;;;;;;;;;;5014871;28;20049;-85
2022/11/14 06:45:54;;;;;;;81.40;45.22;;;;;;;;;;5015867;28;20049;-85
2022/11/14 06:48:20;;;;;;;74.97;43.67;;;;;;;;;;5032984;28;20045;-85
2022/11/14 06:50:56;;;;;;;80.80;44.45;;;;;;;;;;5032127;28;20042;-85
2022/11/14 06:53:23;;;;;;;76.65;44.38;;;;;;;;;;5022355;28;20044;-85
2022/11/14 06:55:56;;;;;;;84.25;45.40;;;;;;;;;;5011269;28;20041;-86
2022/11/14 06:58:22;;;;;;;78.45;44.80;;;;;;;;;;5021915;28;20104;-86
2022/11/14 07:00:48;;;;;;;81.63;45.20;;;;;;;;;;5037909;28;20045;-86
2022/11/14 07:03:14;;;;;;;85.18;46.72;;;;;;;;;;5030944;28;20064;-86
2022/11/14 07:05:40;;;;;;;79.18;45.05;;;;;;;;;;5033870;28;20377;-85
2022/11/14 07:08:06;;;;;;;82.85;46.42;;;;;;;;;;5035334;28;20052;-84
2022/11/14 07:10:32;;;;;;;83.90;46.10;;;;;;;;;;5033007;28;20052;-85
2022/11/14 07:12:58;;;;;;;83.65;45.88;;;;;;;;;;5031683;28;20041;-86
2022/11/14 07:15:24;;;;;;;78.25;44.78;;;;;;;;;;5033057;28;20045;-85
2022/11/14 07:17:49;;;;;;;78.68;44.42;;;;;;;;;;5036519;28;20045;-85
2022/11/14 07:20:17;;;;;;;80.35;45.20;;;;;;;;;;5018464;28;20037;-85
2022/11/14 07:22:45;;;;;;;81.03;45.33;;;;;;;;;;5018956;28;20059;-86
2022/11/14 07:25:11;;;;;;;73.07;41.75;;;;;;;;;;5018214;28;20470;-86
2022/11/14 07:27:37;;;;;;;71.75;41.97;;;;;;;;;;5036822;28;20535;-86
2022/11/14 07:30:03;;;;;;;72.93;42.78;;;;;;;;;;5021591;28;20105;-86
2022/11/14 07:32:29;;;;;;;71.57;41.53;;;;;;;;;;5037769;28;20122;-85
2022/11/14 07:34:55;;;;;;;69.07;41.30;;;;;;;;;;5036847;28;20053;-85
2022/11/14 07:37:21;;;;;;;72.53;43.67;;;;;;;;;;5026815;28;20048;-86
2022/11/14 07:39:47;;;;;;;70.85;42.00;;;;;;;;;;5038710;28;20389;-86
2022/11/14 07:42:13;;;;;;;70.97;41.42;;;;;;;;;;5019669;28;20101;-85
2022/11/14 07:44:39;;;;;;;75.03;42.42;;;;;;;;;;5042493;28;20041;-86
2022/11/14 07:47:05;;;;;;;72.80;43.00;;;;;;;;;;5041831;28;20141;-86
2022/11/14 07:49:31;;;;;;;70.20;42.45;;;;;;;;;;5040283;28;20068;-85
2022/11/14 07:51:57;;;;;;;72.47;42.78;;;;;;;;;;5040737;28;20046;-86
2022/11/14 07:54:23;;;;;;;68.20;42.88;;;;;;;;;;5038174;28;20048;-86
2022/11/14 07:56:49;;;;;;;75.10;43.05;;;;;;;;;;5040787;28;20120;-85
2022/11/14 07:59:15;;;;;;;73.28;43.72;;;;;;;;;;5037016;28;20085;-85
2022/11/14 08:01:41;;;;;;;74.65;42.95;;;;;;;;;;5034948;28;20057;-84
2022/11/14 08:04:07;;;;;;;74.40;43.83;;;;;;;;;;5048369;28;20061;-86
2022/11/14 08:06:33;;;;;;;68.32;43.13;;;;;;;;;;5051637;28;20056;-85
2022/11/14 08:08:59;;;;;;;69.95;42.53;;;;;;;;;;5034213;28;20099;-85
2022/11/14 08:14:10;;;;;;;68.03;40.88;;;;;;;;;;5046320;28;20080;-86
2022/11/14 08:16:36;;;;;;;63.00;39.50;;;;;;;;;;5054069;28;20061;-85
2022/11/14 08:19:02;;;;;;;64.63;39.45;;;;;;;;;;5059506;28;20053;-85
2022/11/14 08:21:28;;;;;;;67.97;41.00;;;;;;;;;;5039264;28;20049;-85
2022/11/14 08:23:54;;;;;;;70.18;41.83;;;;;;;;;;5047072;28;20065;-85
2022/11/14 08:26:20;;;;;;;67.05;40.78;;;;;;;;;;5046792;28;20041;-86
2022/11/14 08:28:46;;;;;;;68.20;41.88;;;;;;;;;;5047818;28;20053;-85
2022/11/14 08:31:15;;;;;;;68.25;41.20;;;;;;;;;;5033010;28;20050;-85
2022/11/14 08:33:41;;;;;;;65.97;40.70;;;;;;;;;;5049122;28;20416;-86
2022/11/14 08:36:07;;;;;;;61.63;39.75;;;;;;;;;;5030395;28;20053;-86
2022/11/14 08:38:34;;;;;;;68.63;40.13;;;;;;;;;;5050479;28;20116;-86
2022/11/14 08:41:00;;;;;;;63.65;39.78;;;;;;;;;;5025765;28;20037;-86
2022/11/14 08:43:26;;;;;;;62.60;40.58;;;;;;;;;;5028972;28;20099;-86
2022/11/14 08:45:52;;;;;;;65.20;38.30;;;;;;;;;;5048109;28;20069;-86
2022/11/14 08:48:18;;;;;;;68.90;40.88;;;;;;;;;;5035743;28;20037;-86
2022/11/14 08:50:44;;;;;;;59.50;37.10;;;;;;;;;;5051077;28;20129;-86
2022/11/14 08:53:10;;;;;;;62.95;40.13;;;;;;;;;;5031300;28;20050;-86
2022/11/14 08:55:36;;;;;;;60.92;39.35;;;;;;;;;;5044678;28;20046;-86
2022/11/14 08:58:02;;;;;;;64.10;39.80;;;;;;;;;;5049083;28;20049;-85
2022/11/14 09:00:28;;;;;;;58.42;38.92;;;;;;;;;;5053710;28;20054;-86
2022/11/14 09:02:54;;;;;;;60.58;38.13;;;;;;;;;;5052052;28;20049;-86
2022/11/14 09:05:21;;;;;;;58.90;38.50;;;;;;;;;;5033361;28;20064;-85
2022/11/14 09:07:47;;;;;;;61.25;39.20;;;;;;;;;;5030658;28;20045;-85
2022/11/14 09:10:13;;;;;;;56.20;38.10;;;;;;;;;;5046750;28;20045;-86
2022/11/14 09:12:39;;;;;;;55.70;38.88;;;;;;;;;;5028986;28;20101;-85
2022/11/14 09:15:05;;;;;;;58.20;38.38;;;;;;;;;;5046067;28;20382;-85
2022/11/14 09:17:31;;;;;;;53.83;37.28;;;;;;;;;;5042429;28;20058;-86
2022/11/14 09:19:57;;;;;;;51.28;35.67;;;;;;;;;;5035825;28;20049;-86
2022/11/14 09:22:23;;;;;;;51.75;36.55;;;;;;;;;;5035883;28;20473;-85
2022/11/14 09:24:50;;;;;;;50.08;34.95;;;;;;;;;;5040248;28;20148;-85
2022/11/14 09:27:16;;;;;;;53.55;35.67;;;;;;;;;;5036283;28;20160;-86
2022/11/14 09:29:42;;;;;;;55.03;37.22;;;;;;;;;;5042806;28;20045;-85
2022/11/14 09:32:08;;;;;;;56.25;37.22;;;;;;;;;;5046284;28;20496;-86
2022/11/14 09:34:36;;;;;;;52.47;36.13;;;;;;;;;;5011546;28;20055;-87
2022/11/14 09:37:02;;;;;;;50.70;35.63;;;;;;;;;;5024488;28;20050;-86
2022/11/14 09:39:28;;;;;;;52.28;36.42;;;;;;;;;;5040430;28;20056;-85
2022/11/14 09:42:04;;;;;;;51.45;36.78;;;;;;;;;;5037663;28;20040;-85
2022/11/14 09:44:39;;;;;;;50.97;35.63;;;;;;;;;;5037134;28;20056;-86
2022/11/14 09:47:08;;;;;;;52.55;36.13;;;;;;;;;;5037526;28;20049;-86
2022/11/14 09:49:39;;;;;;;48.60;34.55;;;;;;;;;;5004071;28;20060;-84
2022/11/14 09:52:11;;;;;;;50.95;35.65;;;;;;;;;;5034376;28;20084;-86
2022/11/14 09:54:44;;;;;;;49.72;35.40;;;;;;;;;;5050557;28;20032;-84
2022/11/14 09:57:15;;;;;;;50.30;34.60;;;;;;;;;;5013174;28;20053;-84
2022/11/14 09:59:41;;;;;;;51.88;35.55;;;;;;;;;;5047992;28;20049;-83
2022/11/14 10:02:17;;;;;;;49.85;34.00;;;;;;;;;;5025796;28;20064;-84
2022/11/14 10:05:02;;;;;;;46.90;32.17;;;;;;;;;;5048682;28;20037;-83
2022/11/14 10:07:37;;;;;;;49.85;35.55;;;;;;;;;;5053149;28;20021;-83
2022/11/14 10:10:08;;;;;;;47.75;34.15;;;;;;;;;;5041798;28;20045;-84
2022/11/14 10:12:38;;;;;;;48.95;35.25;;;;;;;;;;5038499;28;20045;-84
2022/11/14 10:15:16;;;;;;;46.38;34.28;;;;;;;;;;5044872;28;20042;-84
2022/11/14 10:17:54;;;;;;;44.40;33.28;;;;;;;;;;5037046;28;20068;-84
2022/11/14 10:20:30;;;;;;;51.05;34.88;;;;;;;;;;5049129;28;20067;-84
2022/11/14 10:23:11;;;;;;;49.85;35.58;;;;;;;;;;5051137;28;20045;-85
2022/11/14 10:25:43;;;;;;;50.60;36.25;;;;;;;;;;5051014;28;20060;-84
2022/11/14 10:28:21;;;;;;;49.42;35.28;;;;;;;;;;5053444;28;20081;-83
2022/11/14 10:30:47;;;;;;;50.25;34.92;;;;;;;;;;5049595;28;20060;-83
2022/11/14 10:33:20;;;;;;;48.20;35.15;;;;;;;;;;5047368;28;20033;-83
2022/11/14 10:36:06;;;;;;;50.90;34.13;;;;;;;;;;5018286;28;20104;-83
2022/11/14 10:38:39;;;;;;;53.00;34.42;;;;;;;;;;5049340;28;20037;-83
2022/11/14 10:41:06;;;;;;;46.50;33.90;;;;;;;;;;5041886;28;20390;-83
2022/11/14 10:43:34;;;;;;;43.30;31.67;;;;;;;;;;5052698;28;20037;-83
2022/11/14 10:46:15;;;;;;;46.55;33.03;;;;;;;;;;5047817;28;20205;-82
2022/11/14 10:48:42;;;;;;;50.33;34.90;;;;;;;;;;5020068;28;20056;-82
2022/11/14 10:51:19;;;;;;;51.42;33.53;;;;;;;;;;5045597;28;20037;-82
2022/11/14 10:53:48;;;;;;;45.97;34.53;;;;;;;;;;5044464;28;20060;-82
2022/11/14 10:56:14;;;;;;;46.88;33.63;;;;;;;;;;5046212;28;20041;-82
2022/11/14 10:58:41;;;;;;;44.85;32.75;;;;;;;;;;5049835;28;20025;-82
2022/11/14 11:01:26;;;;;;;44.22;32.92;;;;;;;;;;5033098;28;20049;-82
2022/11/14 11:03:52;;;;;;;47.00;33.45;;;;;;;;;;5052116;28;20021;-82
2022/11/14 11:06:25;;;;;;;49.17;32.38;;;;;;;;;;5032728;28;20048;-83
2022/11/14 11:11:40;;;;;;;47.50;34.22;;;;;;;;;;5042128;28;20054;-84
2022/11/14 11:14:14;;;;;;;46.45;32.53;;;;;;;;;;5044658;28;20049;-84
2022/11/14 11:16:41;;;;;;;45.55;32.13;;;;;;;;;;5033125;28;20057;-84
2022/11/14 11:19:33;;;;;;;45.78;33.53;;;;;;;;;;5030297;28;20159;-83
2022/11/14 11:21:59;;;;;;;45.63;32.97;;;;;;;;;;5043287;28;20184;-83
2022/11/14 11:24:32;;;;;;;44.47;33.58;;;;;;;;;;5046553;28;20049;-84
2022/11/14 11:27:17;;;;;;;41.85;31.45;;;;;;;;;;5032760;28;20049;-84
2022/11/14 11:29:43;;;;;;;42.38;33.03;;;;;;;;;;5021335;28;20028;-82
2022/11/14 11:32:09;;;;;;;44.70;32.42;;;;;;;;;;5039498;28;20052;-83
2022/11/14 11:34:35;;;;;;;46.05;32.67;;;;;;;;;;5035528;28;20045;-83
2022/11/14 11:37:01;;;;;;;45.38;33.30;;;;;;;;;;5030829;28;20033;-83
2022/11/14 11:39:29;;;;;;;44.33;32.50;;;;;;;;;;5036487;28;20146;-83
2022/11/14 11:41:57;;;;;;;45.00;31.83;;;;;;;;;;5033033;28;20057;-83
2022/11/14 11:44:28;;;;;;;41.00;31.48;;;;;;;;;;5032963;28;20056;-83
2022/11/14 11:46:54;;;;;;;42.53;31.40;;;;;;;;;;5033368;28;20052;-82
2022/11/14 11:49:26;;;;;;;47.40;32.17;;;;;;;;;;5032654;28;20045;-82
2022/11/14 11:51:54;;;;;;;43.30;31.65;;;;;;;;;;5032774;28;20397;-83
2022/11/14 11:54:26;;;;;;;43.50;31.17;;;;;;;;;;5031644;28;20793;-83
2022/11/14 11:56:57;;;;;;;43.85;31.15;;;;;;;;;;5015686;28;20049;-83
2022/11/14 11:59:43;;;;;;;43.03;31.13;;;;;;;;;;5035743;28;20045;-83
2022/11/14 12:02:17;;;;;;;39.33;28.55;;;;;;;;;;5016630;28;20046;-83
2022/11/14 12:04:43;;;;;;;43.63;30.83;;;;;;;;;;5035625;28;20041;-84
2022/11/14 12:07:15;;;;;;;38.33;28.58;;;;;;;;;;5023255;28;20052;-83
2022/11/14 12:09:41;;;;;;;40.08;29.58;;;;;;;;;;5037028;28;20041;-83
2022/11/14 12:12:27;;;;;;;40.65;29.42;;;;;;;;;;5034712;28;20280;-84
2022/11/14 12:15:12;;;;;;;38.05;28.75;;;;;;;;;;5031126;28;20424;-84
2022/11/14 12:17:51;;;;;;;40.17;29.92;;;;;;;;;;5022748;28;20069;-82
2022/11/14 12:20:19;;;;;;;39.90;28.63;;;;;;;;;;5042402;28;20033;-83
2022/11/14 12:23:06;;;;;;;38.40;28.67;;;;;;;;;;5042062;28;20046;-83
2022/11/14 12:25:32;;;;;;;37.78;28.08;;;;;;;;;;5014880;28;20057;-84
2022/11/14 12:27:58;;;;;;;36.33;27.27;;;;;;;;;;5039156;28;20041;-83
2022/11/14 12:30:24;;;;;;;34.67;25.95;;;;;;;;;;5018361;28;20481;-82
2022/11/14 12:32:57;;;;;;;37.40;28.15;;;;;;;;;;5019284;28;20041;-82
2022/11/14 12:35:29;;;;;;;35.65;26.95;;;;;;;;;;5038094;28;20580;-83
2022/11/14 12:37:56;;;;;;;36.70;28.15;;;;;;;;;;5049759;28;20084;-83
2022/11/14 12:40:27;;;;;;;36.55;26.80;;;;;;;;;;5042175;28;20050;-82
2022/11/14 12:42:54;;;;;;;34.22;25.42;;;;;;;;;;5034234;28;20079;-82
2022/11/14 12:45:35;;;;;;;35.78;25.50;;;;;;;;;;5032011;28;20562;-82
2022/11/14 12:48:21;;;;;;;33.15;25.80;;;;;;;;;;5036827;28;20080;-82
2022/11/14 12:50:47;;;;;;;34.55;25.80;;;;;;;;;;5031601;28;20107;-83
2022/11/14 12:53:37;;;;;;;33.35;25.83;;;;;;;;;;5039873;28;20048;-83
2022/11/14 12:56:15;;;;;;;33.80;25.08;;;;;;;;;;5035412;28;20120;-83
2022/11/14 12:58:53;;;;;;;34.20;26.20;;;;;;;;;;5019784;28;20041;-83
2022/11/14 13:01:22;;;;;;;33.80;25.73;;;;;;;;;;5036486;28;20056;-82
2022/11/14 13:04:07;;;;;;;34.40;25.45;;;;;;;;;;5021857;28;20049;-83
2022/11/14 13:06:53;;;;;;;32.80;24.67;;;;;;;;;;5040309;28;20048;-82
2022/11/14 13:09:32;;;;;;;32.17;24.80;;;;;;;;;;4974801;28;20042;-82
2022/11/14 13:23:36;;;;;;;30.52;24.20;;;;;;;;;;5013306;28;20053;-82
2022/11/14 13:26:11;;;;;;;32.05;23.83;;;;;;;;;;5030283;28;20120;-83
2022/11/14 13:28:37;;;;;;;31.55;23.35;;;;;;;;;;5017798;28;20046;-83
2022/11/14 13:31:06;;;;;;;30.27;23.60;;;;;;;;;;5036153;28;20111;-83
2022/11/14 13:33:41;;;;;;;31.90;23.63;;;;;;;;;;5020602;28;20049;-84
2022/11/14 13:36:11;;;;;;;32.50;24.02;;;;;;;;;;5038685;28;20115;-83
2022/11/14 13:38:44;;;;;;;29.30;22.70;;;;;;;;;;5042301;28;20041;-83
2022/11/14 13:41:20;;;;;;;32.95;23.05;;;;;;;;;;5040165;28;20052;-83
2022/11/14 13:44:05;;;;;;;31.92;23.75;;;;;;;;;;5039412;28;20053;-83
2022/11/14 13:46:43;;;;;;;30.58;23.02;;;;;;;;;;5033462;28;20041;-83
2022/11/14 13:49:21;;;;;;;30.55;23.77;;;;;;;;;;5022046;28;20099;-83
2022/11/14 13:51:47;;;;;;;31.20;22.98;;;;;;;;;;5019928;28;20175;-84
2022/11/14 13:54:15;;;;;;;32.42;23.60;;;;;;;;;;5039317;28;20059;-84
2022/11/14 13:56:50;;;;;;;31.23;22.88;;;;;;;;;;5039927;28;20041;-83
2022/11/14 13:59:32;;;;;;;30.13;22.58;;;;;;;;;;5032734;28;20049;-83
2022/11/14 14:02:01;;;;;;;33.33;22.80;;;;;;;;;;5009738;28;20133;-83
2022/11/14 14:04:33;;;;;;;31.52;23.35;;;;;;;;;;5025907;28;20050;-83
2022/11/14 14:07:02;;;;;;;30.95;23.08;;;;;;;;;;5032124;28;20084;-84
2022/11/14 14:09:34;;;;;;;31.52;23.40;;;;;;;;;;5037548;28;20471;-83
2022/11/14 14:12:12;;;;;;;29.85;22.92;;;;;;;;;;5019354;28;20382;-83
2022/11/14 14:14:41;;;;;;;31.15;23.27;;;;;;;;;;5013968;28;20394;-83
2022/11/14 14:17:12;;;;;;;29.77;22.33;;;;;;;;;;5015357;28;20424;-82
2022/11/14 14:19:55;;;;;;;30.05;22.80;;;;;;;;;;5001357;28;20507;-83
2022/11/14 14:22:33;;;;;;;30.75;22.73;;;;;;;;;;5021675;28;20101;-83
2022/11/14 14:25:02;;;;;;;29.30;21.98;;;;;;;;;;5037077;28;20045;-83
2022/11/14 14:27:47;;;;;;;29.38;22.75;;;;;;;;;;5033011;28;20519;-83
2022/11/14 14:30:15;;;;;;;29.13;23.25;;;;;;;;;;5034975;28;20450;-83
2022/11/14 14:32:41;;;;;;;29.85;22.30;;;;;;;;;;5013278;28;20051;-83
2022/11/14 14:35:19;;;;;;;29.75;22.52;;;;;;;;;;5036002;28;20053;-83
2022/11/14 14:37:52;;;;;;;27.70;21.73;;;;;;;;;;5016358;28;20512;-83
2022/11/14 14:40:27;;;;;;;27.67;21.73;;;;;;;;;;5032695;28;20055;-83